createdAt,value
2019-02-20T00:02:11.039Z,-86
2019-02-20T00:04:43.227Z,-86
2019-02-20T00:07:15.743Z,-86
2019-02-20T00:09:48.304Z,-86
2019-02-20T00:12:21.648Z,-86
2019-02-20T00:14:53.529Z,-86
2019-02-20T00:17:25.692Z,-86
2019-02-20T00:19:58.606Z,-87
2019-02-20T00:22:39.841Z,-86
2019-02-20T00:25:04.287Z,-86
2019-02-20T00:27:36.682Z,-86
2019-02-20T00:30:08.770Z,-86
2019-02-20T00:32:40.579Z,-86
2019-02-20T00:35:12.673Z,-86
2019-02-20T00:37:45.179Z,-86
2019-02-20T00:40:17.804Z,-86
2019-02-20T00:42:50.535Z,-86
2019-02-20T00:45:56.766Z,-86
2019-02-20T00:48:43.316Z,-87
2019-02-20T00:51:37.338Z,-86
2019-02-20T00:54:09.534Z,-86
2019-02-20T00:56:42.265Z,-86
2019-02-20T00:59:14.192Z,-86
2019-02-20T01:01:46.514Z,-86
2019-02-20T01:04:18.929Z,-86
2019-02-20T01:06:51.399Z,-86
2019-02-20T01:09:23.816Z,-87
2019-02-20T01:11:56.098Z,-87
2019-02-20T01:14:28.175Z,-87
2019-02-20T01:17:00.087Z,-87
2019-02-20T01:19:31.886Z,-87
2019-02-20T01:22:03.755Z,-87
2019-02-20T01:24:36.261Z,-87
2019-02-20T01:27:08.893Z,-87
2019-02-20T01:29:41.772Z,-87
2019-02-20T01:32:13.652Z,-87
2019-02-20T01:34:45.464Z,-87
2019-02-20T01:37:18.005Z,-87
2019-02-20T01:39:50.150Z,-87
2019-02-20T01:42:22.017Z,-87
2019-02-20T01:44:53.825Z,-87
2019-02-20T01:47:26.744Z,-87
2019-02-20T01:49:59.277Z,-87
2019-02-20T01:52:31.142Z,-87
2019-02-20T01:55:03.638Z,-87
2019-02-20T01:57:35.507Z,-87
2019-02-20T02:00:08.717Z,-86
2019-02-20T02:02:40.774Z,-87
2019-02-20T02:05:15.441Z,-87
2019-02-20T02:07:47.075Z,-87
2019-02-20T02:10:19.057Z,-86
2019-02-20T02:12:51.318Z,-87
2019-02-20T02:15:23.509Z,-87
2019-02-20T02:17:55.396Z,-87
2019-02-20T02:20:27.898Z,-87
2019-02-20T02:22:59.779Z,-87
2019-02-20T02:25:31.923Z,-87
2019-02-20T02:28:03.816Z,-87
2019-02-20T02:30:35.989Z,-87
2019-02-20T02:33:08.902Z,-87
2019-02-20T02:35:40.709Z,-87
2019-02-20T02:38:13.388Z,-86
2019-02-20T02:40:45.202Z,-87
2019-02-20T02:43:17.378Z,-87
2019-02-20T02:45:49.927Z,-87
2019-02-20T02:48:21.772Z,-87
2019-02-20T02:50:54.008Z,-87
2019-02-20T02:53:30.569Z,-87
2019-02-20T02:55:59.723Z,-85
2019-02-20T02:58:32.084Z,-87
2019-02-20T03:01:07.792Z,-85
2019-02-20T03:03:40.425Z,-86
2019-02-20T03:06:12.350Z,-86
2019-02-20T03:08:44.486Z,-85
2019-02-20T03:11:16.661Z,-89
2019-02-20T03:13:48.524Z,-86
2019-02-20T03:16:20.871Z,-86
2019-02-20T03:18:53.115Z,-86
2019-02-20T03:21:25.032Z,-86
2019-02-20T03:23:57.148Z,-86
2019-02-20T03:26:29.357Z,-86
2019-02-20T03:29:01.507Z,-86
2019-02-20T03:31:33.362Z,-86
2019-02-20T03:34:08.701Z,-86
2019-02-20T03:36:39.275Z,-86
2019-02-20T03:39:11.568Z,-86
2019-02-20T03:41:43.440Z,-86
2019-02-20T03:44:15.764Z,-87
2019-02-20T03:46:47.940Z,-86
2019-02-20T03:49:20.434Z,-86
2019-02-20T03:51:53.118Z,-86
2019-02-20T03:54:25.646Z,-86
2019-02-20T03:56:58.052Z,-87
2019-02-20T03:59:29.900Z,-86
2019-02-20T04:02:02.215Z,-86
2019-02-20T04:04:34.502Z,-86
2019-02-20T04:07:06.390Z,-86
2019-02-20T04:09:38.531Z,-87
2019-02-20T04:12:10.921Z,-86
2019-02-20T04:14:42.840Z,-86
2019-02-20T04:17:15.250Z,-86
2019-02-20T04:19:47.605Z,-86
2019-02-20T04:22:20.093Z,-86
2019-02-20T04:24:52.729Z,-86
2019-02-20T04:27:25.151Z,-86
2019-02-20T04:29:57.928Z,-85
2019-02-20T04:32:29.738Z,-86
2019-02-20T04:35:01.954Z,-86
2019-02-20T04:37:33.773Z,-86
2019-02-20T04:40:06.055Z,-86
2019-02-20T04:42:37.888Z,-86
2019-02-20T04:45:10.049Z,-86
2019-02-20T04:47:43.872Z,-86
2019-02-20T04:50:16.136Z,-86
2019-02-20T04:52:48.062Z,-86
2019-02-20T04:55:19.992Z,-85
2019-02-20T04:58:15.707Z,-85
2019-02-20T05:00:47.969Z,-86
2019-02-20T05:03:19.918Z,-86
2019-02-20T05:05:52.095Z,-86
2019-02-20T05:08:24.295Z,-86
2019-02-20T05:10:56.147Z,-86
2019-02-20T05:13:28.523Z,-86
2019-02-20T05:16:00.394Z,-88
2019-02-20T05:18:32.685Z,-86
2019-02-20T05:21:04.882Z,-85
2019-02-20T05:23:37.318Z,-85
2019-02-20T05:26:09.813Z,-86
2019-02-20T05:28:43.104Z,-86
2019-02-20T05:31:16.570Z,-86
2019-02-20T05:33:49.631Z,-86
2019-02-20T05:36:21.898Z,-85
2019-02-20T05:38:54.275Z,-88
2019-02-20T05:41:26.529Z,-88
2019-02-20T05:43:58.673Z,-88
2019-02-20T05:46:30.909Z,-86
2019-02-20T05:49:03.130Z,-87
2019-02-20T05:51:35.829Z,-86
2019-02-20T05:54:07.862Z,-87
2019-02-20T05:56:40.014Z,-87
2019-02-20T05:59:12.436Z,-88
2019-02-20T06:01:44.679Z,-87
2019-02-20T06:04:16.977Z,-87
2019-02-20T06:06:49.319Z,-86
2019-02-20T06:09:21.829Z,-86
2019-02-20T06:11:54.276Z,-86
2019-02-20T06:14:26.369Z,-86
2019-02-20T06:16:58.246Z,-86
2019-02-20T06:19:30.164Z,-86
2019-02-20T06:22:02.805Z,-86
2019-02-20T06:24:43.619Z,-86
2019-02-20T06:27:08.445Z,-86
2019-02-20T06:29:40.830Z,-86
2019-02-20T06:32:12.800Z,-86
2019-02-20T06:34:45.203Z,-88
2019-02-20T06:37:17.761Z,-86
2019-02-20T06:39:50.290Z,-88
2019-02-20T06:42:22.135Z,-87
2019-02-20T06:44:54.941Z,-87
2019-02-20T06:47:26.800Z,-87
2019-02-20T06:50:01.025Z,-85
2019-02-20T06:52:33.120Z,-86
2019-02-20T06:55:05.298Z,-89
2019-02-20T06:57:37.504Z,-87
2019-02-20T07:00:11.534Z,-88
2019-02-20T07:02:43.730Z,-86
2019-02-20T07:05:55.136Z,-87
2019-02-20T07:09:33.506Z,-85
2019-02-20T07:13:01.643Z,-84
2019-02-20T07:16:25.025Z,-85
2019-02-20T07:19:43.552Z,-85
2019-02-20T07:23:15.374Z,-84
2019-02-20T07:26:55.316Z,-85
2019-02-20T07:30:04.928Z,-85
2019-02-20T07:32:37.166Z,-85
2019-02-20T07:35:11.154Z,-85
2019-02-20T07:37:43.048Z,-85
2019-02-20T07:40:15.081Z,-85
2019-02-20T07:42:47.669Z,-85
2019-02-20T07:45:19.790Z,-85
2019-02-20T07:47:51.652Z,-85
2019-02-20T07:50:23.485Z,-85
2019-02-20T07:52:56.343Z,-84
2019-02-20T07:55:29.156Z,-84
2019-02-20T07:58:01.023Z,-84
2019-02-20T08:00:33.269Z,-84
2019-02-20T08:03:05.121Z,-84
2019-02-20T08:05:36.952Z,-83
2019-02-20T08:08:09.400Z,-86
2019-02-20T08:10:41.213Z,-84
2019-02-20T08:13:13.092Z,-84
2019-02-20T08:15:44.901Z,-85
2019-02-20T08:18:16.805Z,-85
2019-02-20T08:20:48.916Z,-84
2019-02-20T08:23:20.752Z,-84
2019-02-20T08:25:52.549Z,-84
2019-02-20T08:28:24.426Z,-84
2019-02-20T08:30:56.935Z,-84
2019-02-20T08:33:29.803Z,-84
2019-02-20T08:36:02.040Z,-84
2019-02-20T08:38:35.375Z,-84
2019-02-20T08:41:07.168Z,-84
2019-02-20T08:43:39.056Z,-84
2019-02-20T08:46:10.870Z,-85
2019-02-20T08:48:42.752Z,-84
2019-02-20T08:51:14.949Z,-84
2019-02-20T08:53:46.809Z,-85
2019-02-20T08:56:18.796Z,-84
2019-02-20T08:58:51.024Z,-86
2019-02-20T09:01:23.171Z,-85
2019-02-20T09:03:55.715Z,-85
2019-02-20T09:06:27.808Z,-84
2019-02-20T09:08:59.946Z,-83
2019-02-20T09:11:31.873Z,-84
2019-02-20T09:14:04.213Z,-84
2019-02-20T09:16:36.045Z,-85
2019-02-20T09:19:07.931Z,-85
2019-02-20T09:21:39.776Z,-84
2019-02-20T09:24:11.743Z,-84
2019-02-20T09:26:44.275Z,-82
2019-02-20T09:29:16.455Z,-85
2019-02-20T09:31:48.539Z,-85
2019-02-20T09:34:20.519Z,-85
2019-02-20T09:36:52.843Z,-85
2019-02-20T09:39:36.178Z,-85
2019-02-20T09:42:13.903Z,-85
2019-02-20T09:44:50.052Z,-85
2019-02-20T09:47:22.542Z,-85
2019-02-20T09:49:54.908Z,-86
2019-02-20T09:52:26.740Z,-86
2019-02-20T09:54:58.893Z,-85
2019-02-20T09:57:31.144Z,-86
2019-02-20T10:00:03.078Z,-86
2019-02-20T10:02:34.886Z,-86
2019-02-20T10:05:07.712Z,-85
2019-02-20T10:07:39.537Z,-86
2019-02-20T10:10:11.477Z,-86
2019-02-20T10:12:43.332Z,-86
2019-02-20T10:15:15.417Z,-86
2019-02-20T10:17:47.216Z,-86
2019-02-20T10:20:19.102Z,-86
2019-02-20T10:22:50.939Z,-86
2019-02-20T10:25:22.833Z,-87
2019-02-20T10:27:54.804Z,-87
2019-02-20T10:30:26.704Z,-86
2019-02-20T10:32:58.735Z,-86
2019-02-20T10:35:30.995Z,-86
2019-02-20T10:38:02.896Z,-86
2019-02-20T10:40:34.775Z,-86
2019-02-20T10:43:06.609Z,-86
2019-02-20T10:45:38.751Z,-86
2019-02-20T10:48:10.592Z,-86
2019-02-20T10:50:42.470Z,-86
2019-02-20T10:53:14.300Z,-86
2019-02-20T10:55:46.167Z,-86
2019-02-20T10:58:18.027Z,-86
2019-02-20T11:00:49.901Z,-86
2019-02-20T11:03:21.717Z,-86
2019-02-20T11:05:53.679Z,-85
2019-02-20T11:08:25.770Z,-86
2019-02-20T11:10:57.638Z,-86
2019-02-20T11:13:29.864Z,-85
2019-02-20T11:16:01.792Z,-85
2019-02-20T11:18:33.607Z,-85
2019-02-20T11:21:06.241Z,-85
2019-02-20T11:23:38.098Z,-85
2019-02-20T11:26:17.833Z,-85
2019-02-20T11:28:44.454Z,-86
2019-02-20T11:31:16.446Z,-86
2019-02-20T11:33:48.273Z,-86
2019-02-20T11:36:20.393Z,-86
2019-02-20T11:38:52.226Z,-85
2019-02-20T11:41:24.565Z,-86
2019-02-20T11:43:56.777Z,-86
2019-02-20T11:46:28.792Z,-86
2019-02-20T11:49:00.754Z,-86
2019-02-20T11:51:32.811Z,-86
2019-02-20T11:54:04.767Z,-87
2019-02-20T11:56:36.717Z,-85
2019-02-20T11:59:08.569Z,-86
2019-02-20T12:01:40.765Z,-86
2019-02-20T12:04:13.332Z,-87
2019-02-20T12:06:45.853Z,-86
2019-02-20T12:09:17.680Z,-85
2019-02-20T12:11:49.982Z,-85
2019-02-20T12:14:24.358Z,-82
2019-02-20T12:16:55.703Z,-81
2019-02-20T12:19:34.129Z,-84
2019-02-20T12:22:06.414Z,-83
2019-02-20T12:24:38.352Z,-85
2019-02-20T12:27:10.567Z,-83
2019-02-20T12:29:42.387Z,-85
2019-02-20T12:32:14.425Z,-83
2019-02-20T12:34:46.643Z,-84
2019-02-20T12:37:18.515Z,-86
2019-02-20T12:39:50.444Z,-83
2019-02-20T12:42:22.828Z,-83
2019-02-20T12:44:54.924Z,-84
2019-02-20T12:47:27.235Z,-84
2019-02-20T12:50:00.030Z,-84
2019-02-20T12:52:32.791Z,-84
2019-02-20T12:55:05.459Z,-84
2019-02-20T12:57:38.369Z,-84
2019-02-20T13:00:10.779Z,-84
2019-02-20T13:02:43.432Z,-86
2019-02-20T13:05:15.441Z,-87
2019-02-20T13:07:48.644Z,-86
2019-02-20T13:10:21.151Z,-86
2019-02-20T13:12:53.305Z,-87
2019-02-20T13:15:27.249Z,-87
2019-02-20T13:17:59.533Z,-87
2019-02-20T13:20:31.651Z,-85
2019-02-20T13:23:03.545Z,-83
2019-02-20T13:25:36.051Z,-85
2019-02-20T13:28:08.214Z,-85
2019-02-20T13:30:40.534Z,-86
2019-02-20T13:33:12.710Z,-84
2019-02-20T13:35:44.573Z,-85
2019-02-20T13:38:16.494Z,-85
2019-02-20T13:40:48.335Z,-85
2019-02-20T13:43:20.702Z,-85
2019-02-20T13:45:52.626Z,-85
2019-02-20T13:48:24.518Z,-85
2019-02-20T13:50:56.676Z,-85
2019-02-20T13:53:28.596Z,-84
2019-02-20T13:56:00.482Z,-85
2019-02-20T13:58:33.049Z,-85
2019-02-20T14:01:05.017Z,-84
2019-02-20T14:03:36.890Z,-85
2019-02-20T14:06:08.748Z,-85
2019-02-20T14:08:41.169Z,-85
2019-02-20T14:11:13.312Z,-85
2019-02-20T14:13:45.540Z,-85
2019-02-20T14:16:17.348Z,-85
2019-02-20T14:18:49.326Z,-85
2019-02-20T14:21:21.442Z,-85
2019-02-20T14:23:54.015Z,-87
2019-02-20T14:26:25.880Z,-84
2019-02-20T14:28:57.767Z,-87
2019-02-20T14:31:30.258Z,-85
2019-02-20T14:34:02.793Z,-85
2019-02-20T14:36:35.644Z,-86
2019-02-20T14:39:07.670Z,-85
2019-02-20T14:41:39.519Z,-85
2019-02-20T14:44:12.445Z,-86
2019-02-20T14:46:45.015Z,-85
2019-02-20T14:49:17.379Z,-84
2019-02-20T14:51:49.200Z,-84
2019-02-20T14:54:21.337Z,-85
2019-02-20T14:56:53.172Z,-84
2019-02-20T14:59:25.016Z,-84
2019-02-20T15:01:57.619Z,-85
2019-02-20T15:04:29.806Z,-84
2019-02-20T15:07:01.629Z,-85
2019-02-20T15:09:33.475Z,-85
2019-02-20T15:12:05.458Z,-86
2019-02-20T15:14:38.386Z,-85
2019-02-20T15:17:10.254Z,-84
2019-02-20T15:19:42.393Z,-85
2019-02-20T15:22:14.292Z,-85
2019-02-20T15:24:46.141Z,-85
2019-02-20T15:27:19.279Z,-85
2019-02-20T15:29:52.049Z,-85
2019-02-20T15:32:24.345Z,-85
2019-02-20T15:34:56.475Z,-84
2019-02-20T15:37:28.354Z,-85
2019-02-20T15:40:00.313Z,-85
2019-02-20T15:42:32.207Z,-85
2019-02-20T15:45:04.089Z,-84
2019-02-20T15:47:35.972Z,-85
2019-02-20T15:50:09.526Z,-85
2019-02-20T15:52:41.686Z,-85
2019-02-20T15:55:13.671Z,-85
2019-02-20T15:57:45.627Z,-85
2019-02-20T16:00:19.442Z,-85
2019-02-20T16:02:51.753Z,-84
2019-02-20T16:05:23.666Z,-84
2019-02-20T16:07:56.294Z,-85
2019-02-20T16:10:28.222Z,-85
2019-02-20T16:13:00.988Z,-84
2019-02-20T16:15:33.239Z,-85
2019-02-20T16:18:05.804Z,-84
2019-02-20T16:20:37.842Z,-85
2019-02-20T16:23:10.031Z,-85
2019-02-20T16:25:44.959Z,-84
2019-02-20T16:28:34.307Z,-84
2019-02-20T16:31:06.396Z,-84
2019-02-20T16:33:38.638Z,-85
2019-02-20T16:36:10.959Z,-84
2019-02-20T16:38:43.969Z,-84
2019-02-20T16:41:15.830Z,-84
2019-02-20T16:43:48.756Z,-85
2019-02-20T16:46:21.428Z,-84
2019-02-20T16:48:53.708Z,-84
2019-02-20T16:51:25.828Z,-84
2019-02-20T16:53:57.809Z,-84
2019-02-20T16:56:29.693Z,-84
2019-02-20T16:59:01.972Z,-84
2019-02-20T17:01:33.857Z,-84
2019-02-20T17:04:07.237Z,-84
2019-02-20T17:06:40.948Z,-84
2019-02-20T17:09:12.790Z,-84
2019-02-20T17:11:44.664Z,-86
2019-02-20T17:14:16.890Z,-84
2019-02-20T17:16:49.640Z,-83
2019-02-20T17:19:22.315Z,-85
2019-02-20T17:21:54.523Z,-85
2019-02-20T17:24:30.115Z,-85
2019-02-20T17:27:03.064Z,-85
2019-02-20T17:30:04.235Z,-85
2019-02-20T17:32:36.402Z,-86
2019-02-20T17:35:35.124Z,-87
2019-02-20T17:38:07.241Z,-82
2019-02-20T17:40:39.811Z,-83
2019-02-20T17:43:12.429Z,-84
2019-02-20T17:45:44.367Z,-83
2019-02-20T17:48:19.029Z,-83
2019-02-20T17:50:50.905Z,-83
2019-02-20T17:53:24.552Z,-82
2019-02-20T17:55:59.767Z,-82
2019-02-20T17:58:32.000Z,-82
2019-02-20T18:01:05.455Z,-82
2019-02-20T18:03:37.905Z,-82
2019-02-20T18:06:09.720Z,-82
2019-02-20T18:08:42.459Z,-82
2019-02-20T18:11:14.596Z,-82
2019-02-20T18:13:46.755Z,-82
2019-02-20T18:16:19.170Z,-82
2019-02-20T18:18:51.048Z,-82
2019-02-20T18:21:23.702Z,-82
2019-02-20T18:23:55.850Z,-82
2019-02-20T18:26:27.676Z,-81
2019-02-20T18:29:00.022Z,-82
2019-02-20T18:31:32.521Z,-82
2019-02-20T18:34:05.033Z,-83
2019-02-20T18:36:36.855Z,-82
2019-02-20T18:39:08.718Z,-83
2019-02-20T18:41:40.848Z,-83
2019-02-20T18:44:13.994Z,-83
2019-02-20T18:46:45.808Z,-82
2019-02-20T18:49:17.988Z,-83
2019-02-20T18:51:50.090Z,-82
2019-02-20T18:54:25.587Z,-82
2019-02-20T18:56:57.853Z,-83
2019-02-20T18:59:29.715Z,-82
2019-02-20T19:02:01.843Z,-86
2019-02-20T19:04:38.537Z,-86
2019-02-20T19:07:13.094Z,-86
2019-02-20T19:09:49.435Z,-85
2019-02-20T19:12:52.638Z,-86
2019-02-20T19:16:26.669Z,-86
2019-02-20T19:19:32.647Z,-86
2019-02-20T19:23:09.651Z,-86
2019-02-20T19:26:35.153Z,-86
2019-02-20T19:29:43.261Z,-85
2019-02-20T19:33:23.349Z,-85
2019-02-20T19:36:40.065Z,-88
2019-02-20T19:39:59.783Z,-87
2019-02-20T19:43:27.346Z,-87
2019-02-20T19:46:57.889Z,-86
2019-02-20T19:50:16.256Z,-85
2019-02-20T19:53:34.839Z,-85
2019-02-20T19:56:50.298Z,-89
2019-02-20T20:00:14.048Z,-86
2019-02-20T20:03:23.627Z,-86
2019-02-20T20:07:02.777Z,-85
2019-02-20T20:10:21.901Z,-87
2019-02-20T20:13:43.127Z,-88
2019-02-20T20:17:22.467Z,-86
2019-02-20T20:20:35.564Z,-87
2019-02-20T20:23:56.996Z,-86
2019-02-20T20:27:38.662Z,-88
2019-02-20T20:30:55.966Z,-86
2019-02-20T20:35:01.849Z,-87
2019-02-20T20:38:19.664Z,-88
2019-02-20T20:41:37.089Z,-87
2019-02-20T20:44:49.611Z,-86
2019-02-20T20:48:32.269Z,-86
2019-02-20T20:52:07.043Z,-86
2019-02-20T20:55:27.007Z,-86
2019-02-20T20:58:44.612Z,-87
2019-02-20T21:01:45.151Z,-86
2019-02-20T21:05:13.920Z,-86
2019-02-20T21:08:21.044Z,-88
2019-02-20T21:12:14.931Z,-86
2019-02-20T21:15:31.320Z,-87
2019-02-20T21:19:02.554Z,-86
2019-02-20T21:22:13.772Z,-86
2019-02-20T21:25:37.495Z,-86
2019-02-20T21:29:09.915Z,-85
2019-02-20T21:32:57.479Z,-88
2019-02-20T21:36:16.556Z,-87
2019-02-20T21:39:26.465Z,-87
2019-02-20T21:43:18.315Z,-87
2019-02-20T21:46:58.588Z,-87
2019-02-20T21:50:23.175Z,-87
2019-02-20T21:53:22.141Z,-86
2019-02-20T21:56:30.073Z,-86
2019-02-20T21:59:44.746Z,-86
2019-02-20T22:03:04.713Z,-86
2019-02-20T22:06:40.847Z,-86
2019-02-20T22:10:01.239Z,-86
2019-02-20T22:13:33.879Z,-86
2019-02-20T22:16:49.419Z,-86
2019-02-20T22:20:39.744Z,-88
2019-02-20T22:24:02.995Z,-86
2019-02-20T22:27:51.351Z,-86
2019-02-20T22:31:06.767Z,-87
2019-02-20T22:34:52.211Z,-88
2019-02-20T22:38:21.628Z,-85
2019-02-20T22:41:07.109Z,-86
2019-02-20T22:44:39.460Z,-88
2019-02-20T22:47:59.798Z,-87
2019-02-20T22:51:29.868Z,-87
2019-02-20T22:54:43.417Z,-88
2019-02-20T22:58:03.352Z,-86
2019-02-20T23:01:45.233Z,-85
2019-02-20T23:05:14.099Z,-86
2019-02-20T23:08:25.876Z,-86
2019-02-20T23:12:05.513Z,-86
2019-02-20T23:15:02.517Z,-86
2019-02-20T23:17:39.995Z,-87
2019-02-20T23:23:42.005Z,-86
2019-02-20T23:26:29.486Z,-86
